sensor_id;sensor_type;location;lat;lon;timestamp;P1;durP1;ratioP1;P2;durP2;ratioP2
26920;SDS011;14483;47.844;9.660;2024-02-14T00:02:23;5.28;;;1.90;;
26920;SDS011;14483;47.844;9.660;2024-02-14T00:04:52;3.67;;;1.52;;
26920;SDS011;14483;47.844;9.660;2024-02-14T00:07:19;3.63;;;1.63;;
26920;SDS011;14483;47.844;9.660;2024-02-14T00:09:45;3.45;;;0.95;;
26920;SDS011;14483;47.844;9.660;2024-02-14T00:12:11;2.28;;;1.20;;
26920;SDS011;14483;47.844;9.660;2024-02-14T00:14:38;2.60;;;1.48;;
26920;SDS011;14483;47.844;9.660;2024-02-14T00:17:04;2.80;;;1.27;;
26920;SDS011;14483;47.844;9.660;2024-02-14T00:19:32;4.22;;;1.15;;
26920;SDS011;14483;47.844;9.660;2024-02-14T00:22:00;3.80;;;1.40;;
26920;SDS011;14483;47.844;9.660;2024-02-14T00:24:26;3.15;;;1.23;;
26920;SDS011;14483;47.844;9.660;2024-02-14T00:26:53;5.32;;;1.17;;
26920;SDS011;14483;47.844;9.660;2024-02-14T00:29:20;4.55;;;1.50;;
26920;SDS011;14483;47.844;9.660;2024-02-14T00:31:48;6.35;;;1.88;;
26920;SDS011;14483;47.844;9.660;2024-02-14T00:34:14;3.13;;;1.55;;
26920;SDS011;14483;47.844;9.660;2024-02-14T00:36:40;3.08;;;1.75;;
26920;SDS011;14483;47.844;9.660;2024-02-14T00:39:08;3.17;;;1.70;;
26920;SDS011;14483;47.844;9.660;2024-02-14T00:41:35;4.57;;;2.13;;
26920;SDS011;14483;47.844;9.660;2024-02-14T00:44:02;5.28;;;1.58;;
26920;SDS011;14483;47.844;9.660;2024-02-14T00:46:29;5.15;;;1.92;;
26920;SDS011;14483;47.844;9.660;2024-02-14T00:48:55;3.53;;;1.35;;
26920;SDS011;14483;47.844;9.660;2024-02-14T00:51:22;4.15;;;1.30;;
26920;SDS011;14483;47.844;9.660;2024-02-14T00:53:48;3.13;;;1.23;;
26920;SDS011;14483;47.844;9.660;2024-02-14T00:56:16;2.80;;;1.08;;
26920;SDS011;14483;47.844;9.660;2024-02-14T00:58:43;3.60;;;1.40;;
26920;SDS011;14483;47.844;9.660;2024-02-14T01:01:09;2.80;;;1.38;;
26920;SDS011;14483;47.844;9.660;2024-02-14T01:03:37;2.90;;;1.10;;
26920;SDS011;14483;47.844;9.660;2024-02-14T01:06:03;4.82;;;1.52;;
26920;SDS011;14483;47.844;9.660;2024-02-14T01:08:29;4.05;;;1.30;;
26920;SDS011;14483;47.844;9.660;2024-02-14T01:10:56;4.03;;;1.35;;
26920;SDS011;14483;47.844;9.660;2024-02-14T01:13:24;4.25;;;1.58;;
26920;SDS011;14483;47.844;9.660;2024-02-14T01:15:50;3.05;;;1.45;;
26920;SDS011;14483;47.844;9.660;2024-02-14T01:18:16;6.15;;;1.40;;
26920;SDS011;14483;47.844;9.660;2024-02-14T01:20:43;4.82;;;1.10;;
26920;SDS011;14483;47.844;9.660;2024-02-14T01:23:09;4.60;;;1.40;;
26920;SDS011;14483;47.844;9.660;2024-02-14T01:25:35;3.40;;;1.40;;
26920;SDS011;14483;47.844;9.660;2024-02-14T01:28:02;5.57;;;1.42;;
26920;SDS011;14483;47.844;9.660;2024-02-14T01:30:31;3.95;;;1.73;;
26920;SDS011;14483;47.844;9.660;2024-02-14T01:32:58;5.40;;;1.52;;
26920;SDS011;14483;47.844;9.660;2024-02-14T01:35:25;4.03;;;1.77;;
26920;SDS011;14483;47.844;9.660;2024-02-14T01:37:51;5.65;;;1.92;;
26920;SDS011;14483;47.844;9.660;2024-02-14T01:40:19;6.15;;;1.50;;
26920;SDS011;14483;47.844;9.660;2024-02-14T01:42:46;7.13;;;1.83;;
26920;SDS011;14483;47.844;9.660;2024-02-14T01:45:12;4.13;;;1.48;;
26920;SDS011;14483;47.844;9.660;2024-02-14T01:47:40;5.00;;;1.42;;
26920;SDS011;14483;47.844;9.660;2024-02-14T01:50:07;4.60;;;1.42;;
26920;SDS011;14483;47.844;9.660;2024-02-14T01:52:34;3.05;;;1.27;;
26920;SDS011;14483;47.844;9.660;2024-02-14T01:55:01;2.05;;;0.95;;
26920;SDS011;14483;47.844;9.660;2024-02-14T01:57:28;2.35;;;1.10;;
26920;SDS011;14483;47.844;9.660;2024-02-14T01:59:55;3.13;;;1.55;;
26920;SDS011;14483;47.844;9.660;2024-02-14T02:02:22;3.70;;;1.40;;
26920;SDS011;14483;47.844;9.660;2024-02-14T02:04:51;3.67;;;1.35;;
26920;SDS011;14483;47.844;9.660;2024-02-14T02:07:18;2.92;;;1.75;;
26920;SDS011;14483;47.844;9.660;2024-02-14T02:09:45;3.95;;;1.70;;
26920;SDS011;14483;47.844;9.660;2024-02-14T02:12:11;4.63;;;1.80;;
26920;SDS011;14483;47.844;9.660;2024-02-14T02:14:38;5.25;;;1.90;;
26920;SDS011;14483;47.844;9.660;2024-02-14T02:17:05;3.85;;;1.70;;
26920;SDS011;14483;47.844;9.660;2024-02-14T02:19:33;5.50;;;1.75;;
26920;SDS011;14483;47.844;9.660;2024-02-14T02:22:02;6.18;;;1.70;;
26920;SDS011;14483;47.844;9.660;2024-02-14T02:24:31;10.02;;;2.22;;
26920;SDS011;14483;47.844;9.660;2024-02-14T02:26:57;3.72;;;1.85;;
26920;SDS011;14483;47.844;9.660;2024-02-14T02:29:23;5.13;;;2.00;;
26920;SDS011;14483;47.844;9.660;2024-02-14T02:31:50;3.45;;;1.67;;
26920;SDS011;14483;47.844;9.660;2024-02-14T02:34:17;3.50;;;1.83;;
26920;SDS011;14483;47.844;9.660;2024-02-14T02:36:43;3.45;;;1.80;;
26920;SDS011;14483;47.844;9.660;2024-02-14T02:39:11;4.47;;;2.15;;
26920;SDS011;14483;47.844;9.660;2024-02-14T02:41:40;4.00;;;1.70;;
26920;SDS011;14483;47.844;9.660;2024-02-14T02:44:06;7.13;;;2.70;;
26920;SDS011;14483;47.844;9.660;2024-02-14T02:46:32;5.55;;;1.83;;
26920;SDS011;14483;47.844;9.660;2024-02-14T02:48:59;4.97;;;1.95;;
26920;SDS011;14483;47.844;9.660;2024-02-14T02:51:25;6.32;;;1.90;;
26920;SDS011;14483;47.844;9.660;2024-02-14T02:53:52;3.90;;;1.55;;
26920;SDS011;14483;47.844;9.660;2024-02-14T02:56:19;5.90;;;1.45;;
26920;SDS011;14483;47.844;9.660;2024-02-14T02:58:48;2.05;;;1.20;;
26920;SDS011;14483;47.844;9.660;2024-02-14T03:01:15;3.28;;;1.33;;
26920;SDS011;14483;47.844;9.660;2024-02-14T03:03:41;3.65;;;1.45;;
26920;SDS011;14483;47.844;9.660;2024-02-14T03:06:07;2.47;;;1.40;;
26920;SDS011;14483;47.844;9.660;2024-02-14T03:08:34;3.17;;;1.30;;
26920;SDS011;14483;47.844;9.660;2024-02-14T03:11:02;4.57;;;1.73;;
26920;SDS011;14483;47.844;9.660;2024-02-14T03:13:28;4.22;;;1.50;;
26920;SDS011;14483;47.844;9.660;2024-02-14T03:15:56;6.47;;;1.60;;
26920;SDS011;14483;47.844;9.660;2024-02-14T03:18:23;4.28;;;1.45;;
26920;SDS011;14483;47.844;9.660;2024-02-14T03:20:50;6.45;;;1.70;;
26920;SDS011;14483;47.844;9.660;2024-02-14T03:23:18;2.83;;;1.40;;
26920;SDS011;14483;47.844;9.660;2024-02-14T03:25:44;3.80;;;1.20;;
26920;SDS011;14483;47.844;9.660;2024-02-14T03:28:11;2.22;;;1.10;;
26920;SDS011;14483;47.844;9.660;2024-02-14T03:30:38;2.15;;;1.00;;
26920;SDS011;14483;47.844;9.660;2024-02-14T03:33:06;2.78;;;1.38;;
26920;SDS011;14483;47.844;9.660;2024-02-14T03:35:33;3.40;;;1.50;;
26920;SDS011;14483;47.844;9.660;2024-02-14T03:37:59;3.53;;;1.55;;
26920;SDS011;14483;47.844;9.660;2024-02-14T03:40:26;3.90;;;1.13;;
26920;SDS011;14483;47.844;9.660;2024-02-14T03:42:55;3.20;;;1.50;;
26920;SDS011;14483;47.844;9.660;2024-02-14T03:45:21;4.78;;;1.70;;
26920;SDS011;14483;47.844;9.660;2024-02-14T03:47:48;4.18;;;1.90;;
26920;SDS011;14483;47.844;9.660;2024-02-14T03:50:16;8.82;;;1.90;;
26920;SDS011;14483;47.844;9.660;2024-02-14T03:52:42;3.55;;;1.58;;
26920;SDS011;14483;47.844;9.660;2024-02-14T03:55:09;3.25;;;1.80;;
26920;SDS011;14483;47.844;9.660;2024-02-14T03:57:38;8.50;;;1.42;;
26920;SDS011;14483;47.844;9.660;2024-02-14T04:00:05;3.83;;;1.50;;
26920;SDS011;14483;47.844;9.660;2024-02-14T04:02:35;7.95;;;1.90;;
26920;SDS011;14483;47.844;9.660;2024-02-14T04:05:01;5.85;;;1.45;;
26920;SDS011;14483;47.844;9.660;2024-02-14T04:07:29;2.78;;;1.17;;
26920;SDS011;14483;47.844;9.660;2024-02-14T04:09:56;4.60;;;1.35;;
26920;SDS011;14483;47.844;9.660;2024-02-14T04:12:24;3.30;;;1.30;;
26920;SDS011;14483;47.844;9.660;2024-02-14T04:14:50;3.42;;;1.33;;
26920;SDS011;14483;47.844;9.660;2024-02-14T04:17:16;4.95;;;1.27;;
26920;SDS011;14483;47.844;9.660;2024-02-14T04:19:43;2.40;;;1.30;;
26920;SDS011;14483;47.844;9.660;2024-02-14T04:22:10;1.48;;;0.82;;
26920;SDS011;14483;47.844;9.660;2024-02-14T04:24:38;3.28;;;1.38;;
26920;SDS011;14483;47.844;9.660;2024-02-14T04:27:04;2.13;;;1.08;;
26920;SDS011;14483;47.844;9.660;2024-02-14T04:29:30;3.13;;;1.15;;
26920;SDS011;14483;47.844;9.660;2024-02-14T04:31:58;4.20;;;1.10;;
26920;SDS011;14483;47.844;9.660;2024-02-14T04:34:24;3.28;;;1.30;;
26920;SDS011;14483;47.844;9.660;2024-02-14T04:36:51;5.95;;;1.20;;
26920;SDS011;14483;47.844;9.660;2024-02-14T04:39:17;2.97;;;1.52;;
26920;SDS011;14483;47.844;9.660;2024-02-14T04:41:45;4.80;;;1.17;;
26920;SDS011;14483;47.844;9.660;2024-02-14T04:44:12;2.70;;;1.20;;
26920;SDS011;14483;47.844;9.660;2024-02-14T04:46:38;2.92;;;1.20;;
26920;SDS011;14483;47.844;9.660;2024-02-14T04:49:08;4.80;;;1.27;;
26920;SDS011;14483;47.844;9.660;2024-02-14T04:51:35;3.42;;;1.52;;
26920;SDS011;14483;47.844;9.660;2024-02-14T04:54:01;2.95;;;0.82;;
26920;SDS011;14483;47.844;9.660;2024-02-14T04:56:27;2.90;;;1.10;;
26920;SDS011;14483;47.844;9.660;2024-02-14T04:58:55;3.78;;;1.48;;
26920;SDS011;14483;47.844;9.660;2024-02-14T05:01:22;4.20;;;1.75;;
26920;SDS011;14483;47.844;9.660;2024-02-14T05:03:48;4.30;;;1.50;;
26920;SDS011;14483;47.844;9.660;2024-02-14T05:06:15;2.60;;;1.20;;
26920;SDS011;14483;47.844;9.660;2024-02-14T05:08:41;8.00;;;1.38;;
26920;SDS011;14483;47.844;9.660;2024-02-14T05:11:07;4.35;;;1.23;;
26920;SDS011;14483;47.844;9.660;2024-02-14T05:13:34;3.55;;;1.15;;
26920;SDS011;14483;47.844;9.660;2024-02-14T05:16:03;2.45;;;1.42;;
26920;SDS011;14483;47.844;9.660;2024-02-14T05:18:29;2.35;;;1.05;;
26920;SDS011;14483;47.844;9.660;2024-02-14T05:20:56;3.10;;;1.10;;
26920;SDS011;14483;47.844;9.660;2024-02-14T05:23:23;3.45;;;1.48;;
26920;SDS011;14483;47.844;9.660;2024-02-14T05:25:49;5.57;;;1.63;;
26920;SDS011;14483;47.844;9.660;2024-02-14T05:28:16;7.45;;;1.75;;
26920;SDS011;14483;47.844;9.660;2024-02-14T05:30:43;3.83;;;1.70;;
26920;SDS011;14483;47.844;9.660;2024-02-14T05:33:11;4.35;;;1.77;;
26920;SDS011;14483;47.844;9.660;2024-02-14T05:35:38;3.72;;;1.60;;
26920;SDS011;14483;47.844;9.660;2024-02-14T05:38:04;3.63;;;1.30;;
26920;SDS011;14483;47.844;9.660;2024-02-14T05:40:32;4.22;;;1.88;;
26920;SDS011;14483;47.844;9.660;2024-02-14T05:42:59;5.38;;;1.88;;
26920;SDS011;14483;47.844;9.660;2024-02-14T05:45:25;4.55;;;1.73;;
26920;SDS011;14483;47.844;9.660;2024-02-14T05:47:52;8.50;;;1.95;;
26920;SDS011;14483;47.844;9.660;2024-02-14T05:50:20;3.53;;;1.80;;
26920;SDS011;14483;47.844;9.660;2024-02-14T05:52:46;7.20;;;2.40;;
26920;SDS011;14483;47.844;9.660;2024-02-14T05:55:13;2.95;;;1.77;;
26920;SDS011;14483;47.844;9.660;2024-02-14T05:57:40;6.45;;;1.83;;
26920;SDS011;14483;47.844;9.660;2024-02-14T06:00:07;8.63;;;2.10;;
26920;SDS011;14483;47.844;9.660;2024-02-14T06:02:34;6.72;;;2.55;;
26920;SDS011;14483;47.844;9.660;2024-02-14T06:05:01;50.47;;;17.88;;
26920;SDS011;14483;47.844;9.660;2024-02-14T06:07:28;62.58;;;23.13;;
26920;SDS011;14483;47.844;9.660;2024-02-14T06:09:55;55.45;;;21.67;;
26920;SDS011;14483;47.844;9.660;2024-02-14T06:12:21;52.22;;;20.35;;
26920;SDS011;14483;47.844;9.660;2024-02-14T06:14:48;24.13;;;9.10;;
26920;SDS011;14483;47.844;9.660;2024-02-14T06:17:15;31.20;;;11.60;;
26920;SDS011;14483;47.844;9.660;2024-02-14T06:19:41;14.13;;;6.13;;
26920;SDS011;14483;47.844;9.660;2024-02-14T06:22:07;7.43;;;3.13;;
26920;SDS011;14483;47.844;9.660;2024-02-14T06:24:35;8.20;;;2.72;;
26920;SDS011;14483;47.844;9.660;2024-02-14T06:27:02;6.88;;;2.47;;
26920;SDS011;14483;47.844;9.660;2024-02-14T06:29:28;6.55;;;2.38;;
26920;SDS011;14483;47.844;9.660;2024-02-14T06:31:54;6.38;;;2.22;;
26920;SDS011;14483;47.844;9.660;2024-02-14T06:34:21;4.32;;;2.60;;
26920;SDS011;14483;47.844;9.660;2024-02-14T06:36:47;7.00;;;2.10;;
26920;SDS011;14483;47.844;9.660;2024-02-14T06:39:13;2.95;;;1.52;;
26920;SDS011;14483;47.844;9.660;2024-02-14T06:41:41;5.60;;;1.80;;
26920;SDS011;14483;47.844;9.660;2024-02-14T06:44:08;4.18;;;1.80;;
26920;SDS011;14483;47.844;9.660;2024-02-14T06:46:35;5.20;;;1.50;;
26920;SDS011;14483;47.844;9.660;2024-02-14T06:49:03;4.55;;;1.70;;
26920;SDS011;14483;47.844;9.660;2024-02-14T06:51:29;4.53;;;1.75;;
26920;SDS011;14483;47.844;9.660;2024-02-14T06:53:56;3.78;;;1.20;;
26920;SDS011;14483;47.844;9.660;2024-02-14T06:56:22;3.00;;;1.27;;
26920;SDS011;14483;47.844;9.660;2024-02-14T06:58:50;6.25;;;1.15;;
26920;SDS011;14483;47.844;9.660;2024-02-14T07:01:18;5.72;;;1.38;;
26920;SDS011;14483;47.844;9.660;2024-02-14T07:03:47;5.88;;;2.83;;
26920;SDS011;14483;47.844;9.660;2024-02-14T07:06:12;9.68;;;3.03;;
26920;SDS011;14483;47.844;9.660;2024-02-14T07:08:40;4.30;;;2.05;;
26920;SDS011;14483;47.844;9.660;2024-02-14T07:11:06;7.40;;;1.95;;
26920;SDS011;14483;47.844;9.660;2024-02-14T07:13:33;5.43;;;2.30;;
26920;SDS011;14483;47.844;9.660;2024-02-14T07:16:01;4.10;;;2.13;;
26920;SDS011;14483;47.844;9.660;2024-02-14T07:18:27;5.43;;;1.58;;
26920;SDS011;14483;47.844;9.660;2024-02-14T07:20:53;4.90;;;2.30;;
26920;SDS011;14483;47.844;9.660;2024-02-14T07:23:20;6.03;;;2.47;;
26920;SDS011;14483;47.844;9.660;2024-02-14T07:25:46;5.15;;;2.33;;
26920;SDS011;14483;47.844;9.660;2024-02-14T07:28:12;3.75;;;1.83;;
26920;SDS011;14483;47.844;9.660;2024-02-14T07:30:39;4.82;;;1.90;;
26920;SDS011;14483;47.844;9.660;2024-02-14T07:33:06;7.70;;;2.35;;
26920;SDS011;14483;47.844;9.660;2024-02-14T07:35:33;5.00;;;2.35;;
26920;SDS011;14483;47.844;9.660;2024-02-14T07:37:59;6.30;;;2.67;;
26920;SDS011;14483;47.844;9.660;2024-02-14T07:40:26;8.38;;;2.90;;
26920;SDS011;14483;47.844;9.660;2024-02-14T07:42:53;4.97;;;2.50;;
26920;SDS011;14483;47.844;9.660;2024-02-14T07:45:19;7.65;;;3.08;;
26920;SDS011;14483;47.844;9.660;2024-02-14T07:47:45;9.77;;;2.83;;
26920;SDS011;14483;47.844;9.660;2024-02-14T07:50:15;4.50;;;2.35;;
26920;SDS011;14483;47.844;9.660;2024-02-14T07:52:42;8.13;;;3.15;;
26920;SDS011;14483;47.844;9.660;2024-02-14T07:55:09;6.07;;;2.58;;
26920;SDS011;14483;47.844;9.660;2024-02-14T07:57:37;6.90;;;2.50;;
26920;SDS011;14483;47.844;9.660;2024-02-14T08:00:04;6.35;;;2.33;;
26920;SDS011;14483;47.844;9.660;2024-02-14T08:02:33;6.38;;;2.40;;
26920;SDS011;14483;47.844;9.660;2024-02-14T08:04:59;5.95;;;2.10;;
26920;SDS011;14483;47.844;9.660;2024-02-14T08:07:27;3.78;;;2.08;;
26920;SDS011;14483;47.844;9.660;2024-02-14T08:09:54;4.03;;;2.13;;
26920;SDS011;14483;47.844;9.660;2024-02-14T08:12:20;4.30;;;1.92;;
26920;SDS011;14483;47.844;9.660;2024-02-14T08:14:47;6.07;;;2.80;;
26920;SDS011;14483;47.844;9.660;2024-02-14T08:17:13;8.07;;;2.95;;
26920;SDS011;14483;47.844;9.660;2024-02-14T08:19:39;7.22;;;3.45;;
26920;SDS011;14483;47.844;9.660;2024-02-14T08:22:06;11.07;;;2.60;;
26920;SDS011;14483;47.844;9.660;2024-02-14T08:24:34;9.70;;;2.35;;
26920;SDS011;14483;47.844;9.660;2024-02-14T08:27:00;4.68;;;1.80;;
26920;SDS011;14483;47.844;9.660;2024-02-14T08:29:27;4.78;;;2.05;;
26920;SDS011;14483;47.844;9.660;2024-02-14T08:31:53;3.53;;;1.77;;
26920;SDS011;14483;47.844;9.660;2024-02-14T08:34:21;3.00;;;1.30;;
26920;SDS011;14483;47.844;9.660;2024-02-14T08:36:47;6.30;;;1.30;;
26920;SDS011;14483;47.844;9.660;2024-02-14T08:39:13;3.92;;;1.13;;
26920;SDS011;14483;47.844;9.660;2024-02-14T08:41:43;3.42;;;1.23;;
26920;SDS011;14483;47.844;9.660;2024-02-14T08:44:12;3.40;;;1.33;;
26920;SDS011;14483;47.844;9.660;2024-02-14T08:46:38;3.08;;;1.00;;
26920;SDS011;14483;47.844;9.660;2024-02-14T08:49:09;5.03;;;1.45;;
26920;SDS011;14483;47.844;9.660;2024-02-14T08:51:35;8.15;;;1.50;;
26920;SDS011;14483;47.844;9.660;2024-02-14T08:54:01;8.45;;;1.10;;
26920;SDS011;14483;47.844;9.660;2024-02-14T08:56:30;4.95;;;1.50;;
26920;SDS011;14483;47.844;9.660;2024-02-14T08:58:59;4.82;;;2.13;;
26920;SDS011;14483;47.844;9.660;2024-02-14T09:01:26;5.05;;;1.60;;
26920;SDS011;14483;47.844;9.660;2024-02-14T09:03:52;8.73;;;2.20;;
26920;SDS011;14483;47.844;9.660;2024-02-14T09:06:18;3.63;;;2.03;;
26920;SDS011;14483;47.844;9.660;2024-02-14T09:08:45;8.90;;;3.70;;
26920;SDS011;14483;47.844;9.660;2024-02-14T09:11:11;5.50;;;2.67;;
26920;SDS011;14483;47.844;9.660;2024-02-14T09:13:38;3.67;;;1.48;;
26920;SDS011;14483;47.844;9.660;2024-02-14T09:16:07;4.72;;;1.63;;
26920;SDS011;14483;47.844;9.660;2024-02-14T09:18:34;2.63;;;0.95;;
26920;SDS011;14483;47.844;9.660;2024-02-14T09:21:00;2.42;;;0.70;;
26920;SDS011;14483;47.844;9.660;2024-02-14T09:23:28;2.03;;;0.82;;
26920;SDS011;14483;47.844;9.660;2024-02-14T09:25:55;4.40;;;0.60;;
26920;SDS011;14483;47.844;9.660;2024-02-14T09:28:22;3.80;;;0.55;;
26920;SDS011;14483;47.844;9.660;2024-02-14T09:30:50;1.98;;;0.63;;
26920;SDS011;14483;47.844;9.660;2024-02-14T09:33:18;1.75;;;0.70;;
26920;SDS011;14483;47.844;9.660;2024-02-14T09:35:45;2.10;;;0.85;;
26920;SDS011;14483;47.844;9.660;2024-02-14T09:38:12;2.33;;;1.13;;
26920;SDS011;14483;47.844;9.660;2024-02-14T09:40:39;2.40;;;0.70;;
26920;SDS011;14483;47.844;9.660;2024-02-14T09:43:07;1.13;;;0.43;;
26920;SDS011;14483;47.844;9.660;2024-02-14T09:45:38;4.45;;;1.00;;
26920;SDS011;14483;47.844;9.660;2024-02-14T09:48:07;4.43;;;1.02;;
26920;SDS011;14483;47.844;9.660;2024-02-14T09:50:34;3.90;;;0.77;;
26920;SDS011;14483;47.844;9.660;2024-02-14T09:53:01;1.80;;;0.57;;
26920;SDS011;14483;47.844;9.660;2024-02-14T09:55:29;4.68;;;0.70;;
26920;SDS011;14483;47.844;9.660;2024-02-14T09:57:55;4.68;;;0.60;;
26920;SDS011;14483;47.844;9.660;2024-02-14T10:00:22;4.00;;;0.80;;
26920;SDS011;14483;47.844;9.660;2024-02-14T10:02:49;2.17;;;0.70;;
26920;SDS011;14483;47.844;9.660;2024-02-14T10:05:15;2.13;;;0.50;;
26920;SDS011;14483;47.844;9.660;2024-02-14T10:07:43;2.65;;;0.60;;
26920;SDS011;14483;47.844;9.660;2024-02-14T10:10:11;2.55;;;0.82;;
26920;SDS011;14483;47.844;9.660;2024-02-14T10:12:39;2.63;;;0.77;;
26920;SDS011;14483;47.844;9.660;2024-02-14T10:15:06;1.45;;;0.60;;
26920;SDS011;14483;47.844;9.660;2024-02-14T10:17:33;1.88;;;0.52;;
26920;SDS011;14483;47.844;9.660;2024-02-14T10:20:00;4.15;;;0.75;;
26920;SDS011;14483;47.844;9.660;2024-02-14T10:22:32;1.45;;;0.55;;
26920;SDS011;14483;47.844;9.660;2024-02-14T10:25:00;1.40;;;0.45;;
26920;SDS011;14483;47.844;9.660;2024-02-14T10:27:27;2.17;;;0.60;;
26920;SDS011;14483;47.844;9.660;2024-02-14T10:29:55;2.30;;;0.40;;
26920;SDS011;14483;47.844;9.660;2024-02-14T10:32:22;5.28;;;0.50;;
26920;SDS011;14483;47.844;9.660;2024-02-14T10:34:49;2.78;;;0.70;;
26920;SDS011;14483;47.844;9.660;2024-02-14T10:37:15;3.63;;;0.60;;
26920;SDS011;14483;47.844;9.660;2024-02-14T10:39:44;1.55;;;0.70;;
26920;SDS011;14483;47.844;9.660;2024-02-14T10:42:15;2.20;;;0.60;;
26920;SDS011;14483;47.844;9.660;2024-02-14T10:44:41;1.45;;;0.40;;
26920;SDS011;14483;47.844;9.660;2024-02-14T10:47:10;1.17;;;0.50;;
26920;SDS011;14483;47.844;9.660;2024-02-14T10:49:37;3.72;;;0.38;;
26920;SDS011;14483;47.844;9.660;2024-02-14T10:52:04;1.30;;;0.45;;
26920;SDS011;14483;47.844;9.660;2024-02-14T10:54:32;1.15;;;0.45;;
26920;SDS011;14483;47.844;9.660;2024-02-14T10:57:00;1.17;;;0.30;;
26920;SDS011;14483;47.844;9.660;2024-02-14T10:59:33;1.55;;;0.50;;
26920;SDS011;14483;47.844;9.660;2024-02-14T11:02:01;1.85;;;0.47;;
26920;SDS011;14483;47.844;9.660;2024-02-14T11:04:28;2.80;;;0.70;;
26920;SDS011;14483;47.844;9.660;2024-02-14T11:06:55;1.90;;;0.60;;
26920;SDS011;14483;47.844;9.660;2024-02-14T11:09:31;1.90;;;0.40;;
26920;SDS011;14483;47.844;9.660;2024-02-14T11:11:58;2.85;;;0.47;;
26920;SDS011;14483;47.844;9.660;2024-02-14T11:14:29;3.50;;;0.50;;
26920;SDS011;14483;47.844;9.660;2024-02-14T11:16:57;1.10;;;0.40;;
26920;SDS011;14483;47.844;9.660;2024-02-14T11:19:29;1.80;;;0.55;;
26920;SDS011;14483;47.844;9.660;2024-02-14T11:21:58;0.98;;;0.70;;
26920;SDS011;14483;47.844;9.660;2024-02-14T11:24:26;3.55;;;0.52;;
26920;SDS011;14483;47.844;9.660;2024-02-14T11:26:56;2.63;;;0.43;;
26920;SDS011;14483;47.844;9.660;2024-02-14T11:29:28;1.45;;;0.63;;
26920;SDS011;14483;47.844;9.660;2024-02-14T11:31:59;3.47;;;0.63;;
26920;SDS011;14483;47.844;9.660;2024-02-14T11:34:27;4.28;;;0.60;;
26920;SDS011;14483;47.844;9.660;2024-02-14T11:36:53;2.45;;;0.55;;
26920;SDS011;14483;47.844;9.660;2024-02-14T11:39:21;1.05;;;0.47;;
26920;SDS011;14483;47.844;9.660;2024-02-14T11:41:47;1.20;;;0.40;;
26920;SDS011;14483;47.844;9.660;2024-02-14T11:44:13;1.40;;;0.40;;
26920;SDS011;14483;47.844;9.660;2024-02-14T11:46:40;6.43;;;0.80;;
26920;SDS011;14483;47.844;9.660;2024-02-14T11:49:08;1.55;;;0.50;;
26920;SDS011;14483;47.844;9.660;2024-02-14T11:51:35;2.58;;;0.50;;
26920;SDS011;14483;47.844;9.660;2024-02-14T11:54:01;5.88;;;0.50;;
26920;SDS011;14483;47.844;9.660;2024-02-14T11:56:30;1.23;;;0.50;;
26920;SDS011;14483;47.844;9.660;2024-02-14T11:58:59;2.20;;;0.60;;
26920;SDS011;14483;47.844;9.660;2024-02-14T12:01:25;0.75;;;0.25;;
26920;SDS011;14483;47.844;9.660;2024-02-14T12:03:52;2.78;;;0.40;;
26920;SDS011;14483;47.844;9.660;2024-02-14T12:06:20;1.85;;;0.73;;
26920;SDS011;14483;47.844;9.660;2024-02-14T12:08:46;2.90;;;0.50;;
26920;SDS011;14483;47.844;9.660;2024-02-14T12:11:12;1.20;;;0.40;;
26920;SDS011;14483;47.844;9.660;2024-02-14T12:13:39;2.28;;;0.50;;
26920;SDS011;14483;47.844;9.660;2024-02-14T12:16:08;3.97;;;0.65;;
26920;SDS011;14483;47.844;9.660;2024-02-14T12:18:35;3.65;;;0.50;;
26920;SDS011;14483;47.844;9.660;2024-02-14T12:21:04;1.45;;;0.40;;
26920;SDS011;14483;47.844;9.660;2024-02-14T12:23:34;1.80;;;0.50;;
26920;SDS011;14483;47.844;9.660;2024-02-14T12:26:01;2.38;;;0.50;;
26920;SDS011;14483;47.844;9.660;2024-02-14T12:28:28;2.47;;;0.80;;
26920;SDS011;14483;47.844;9.660;2024-02-14T12:30:55;2.08;;;0.70;;
26920;SDS011;14483;47.844;9.660;2024-02-14T12:33:22;5.07;;;0.32;;
26920;SDS011;14483;47.844;9.660;2024-02-14T12:35:49;2.92;;;0.40;;
26920;SDS011;14483;47.844;9.660;2024-02-14T12:38:16;1.85;;;0.43;;
26920;SDS011;14483;47.844;9.660;2024-02-14T12:40:44;2.53;;;0.40;;
26920;SDS011;14483;47.844;9.660;2024-02-14T12:43:11;3.58;;;0.52;;
26920;SDS011;14483;47.844;9.660;2024-02-14T12:45:38;1.45;;;0.70;;
26920;SDS011;14483;47.844;9.660;2024-02-14T12:48:04;0.50;;;0.30;;
26920;SDS011;14483;47.844;9.660;2024-02-14T12:50:31;1.88;;;0.60;;
26920;SDS011;14483;47.844;9.660;2024-02-14T12:52:58;1.45;;;0.47;;
26920;SDS011;14483;47.844;9.660;2024-02-14T12:55:24;0.98;;;0.45;;
26920;SDS011;14483;47.844;9.660;2024-02-14T12:57:52;1.38;;;0.38;;
26920;SDS011;14483;47.844;9.660;2024-02-14T13:00:18;0.90;;;0.43;;
26920;SDS011;14483;47.844;9.660;2024-02-14T13:02:46;5.00;;;0.70;;
26920;SDS011;14483;47.844;9.660;2024-02-14T13:05:13;2.53;;;0.40;;
26920;SDS011;14483;47.844;9.660;2024-02-14T13:07:39;1.98;;;0.50;;
26920;SDS011;14483;47.844;9.660;2024-02-14T13:10:06;1.48;;;0.50;;
26920;SDS011;14483;47.844;9.660;2024-02-14T13:12:34;2.03;;;0.65;;
26920;SDS011;14483;47.844;9.660;2024-02-14T13:15:02;4.80;;;0.63;;
26920;SDS011;14483;47.844;9.660;2024-02-14T13:17:29;1.73;;;0.47;;
26920;SDS011;14483;47.844;9.660;2024-02-14T13:19:55;1.92;;;0.52;;
26920;SDS011;14483;47.844;9.660;2024-02-14T13:22:22;1.67;;;0.70;;
26920;SDS011;14483;47.844;9.660;2024-02-14T13:24:48;1.10;;;0.30;;
26920;SDS011;14483;47.844;9.660;2024-02-14T13:27:15;1.02;;;0.50;;
26920;SDS011;14483;47.844;9.660;2024-02-14T13:29:41;2.72;;;0.40;;
26920;SDS011;14483;47.844;9.660;2024-02-14T13:32:10;1.60;;;0.60;;
26920;SDS011;14483;47.844;9.660;2024-02-14T13:34:36;2.00;;;0.52;;
26920;SDS011;14483;47.844;9.660;2024-02-14T13:37:03;0.98;;;0.43;;
26920;SDS011;14483;47.844;9.660;2024-02-14T13:39:30;1.67;;;0.57;;
26920;SDS011;14483;47.844;9.660;2024-02-14T13:41:56;1.02;;;0.82;;
26920;SDS011;14483;47.844;9.660;2024-02-14T13:44:25;3.15;;;0.55;;
26920;SDS011;14483;47.844;9.660;2024-02-14T13:46:51;1.45;;;0.43;;
26920;SDS011;14483;47.844;9.660;2024-02-14T13:49:19;1.60;;;0.32;;
26920;SDS011;14483;47.844;9.660;2024-02-14T13:51:47;2.75;;;0.70;;
26920;SDS011;14483;47.844;9.660;2024-02-14T13:54:15;2.15;;;0.50;;
26920;SDS011;14483;47.844;9.660;2024-02-14T13:56:41;2.65;;;0.70;;
26920;SDS011;14483;47.844;9.660;2024-02-14T13:59:08;1.45;;;0.55;;
26920;SDS011;14483;47.844;9.660;2024-02-14T14:01:34;4.32;;;0.60;;
26920;SDS011;14483;47.844;9.660;2024-02-14T14:04:02;4.03;;;0.60;;
26920;SDS011;14483;47.844;9.660;2024-02-14T14:06:30;0.55;;;0.40;;
26920;SDS011;14483;47.844;9.660;2024-02-14T14:08:56;1.52;;;0.40;;
26920;SDS011;14483;47.844;9.660;2024-02-14T14:11:24;0.82;;;0.30;;
26920;SDS011;14483;47.844;9.660;2024-02-14T14:13:50;1.67;;;0.60;;
26920;SDS011;14483;47.844;9.660;2024-02-14T14:16:16;2.80;;;0.50;;
26920;SDS011;14483;47.844;9.660;2024-02-14T14:18:43;2.70;;;0.68;;
26920;SDS011;14483;47.844;9.660;2024-02-14T14:21:09;0.93;;;0.38;;
26920;SDS011;14483;47.844;9.660;2024-02-14T14:23:37;0.82;;;0.30;;
26920;SDS011;14483;47.844;9.660;2024-02-14T14:26:03;1.55;;;0.45;;
26920;SDS011;14483;47.844;9.660;2024-02-14T14:28:31;1.35;;;0.40;;
26920;SDS011;14483;47.844;9.660;2024-02-14T14:30:57;1.20;;;0.57;;
26920;SDS011;14483;47.844;9.660;2024-02-14T14:33:25;1.13;;;0.50;;
26920;SDS011;14483;47.844;9.660;2024-02-14T14:35:52;1.13;;;0.40;;
26920;SDS011;14483;47.844;9.660;2024-02-14T14:38:19;0.32;;;0.20;;
26920;SDS011;14483;47.844;9.660;2024-02-14T14:40:47;1.48;;;0.40;;
26920;SDS011;14483;47.844;9.660;2024-02-14T14:43:14;0.52;;;0.30;;
26920;SDS011;14483;47.844;9.660;2024-02-14T14:45:44;1.88;;;0.45;;
26920;SDS011;14483;47.844;9.660;2024-02-14T14:48:10;2.67;;;0.40;;